sensor_id;sensor_type;location;lat;lon;timestamp;P1;durP1;ratioP1;P2;durP2;ratioP2
64667;SDS011;51077;42.716;23.344;2023-11-22T00:00:54;27.43;;;18.13;;
64667;SDS011;51077;42.716;23.344;2023-11-22T00:03:19;28.73;;;19.13;;
64667;SDS011;51077;42.716;23.344;2023-11-22T00:05:45;29.07;;;18.33;;
64667;SDS011;51077;42.716;23.344;2023-11-22T00:08:11;30.33;;;18.80;;
64667;SDS011;51077;42.716;23.344;2023-11-22T00:10:37;31.30;;;19.20;;
64667;SDS011;51077;42.716;23.344;2023-11-22T00:13:03;29.50;;;18.90;;
64667;SDS011;51077;42.716;23.344;2023-11-22T00:15:28;27.80;;;18.50;;
64667;SDS011;51077;42.716;23.344;2023-11-22T00:17:53;25.07;;;16.77;;
64667;SDS011;51077;42.716;23.344;2023-11-22T00:20:19;27.97;;;17.83;;
64667;SDS011;51077;42.716;23.344;2023-11-22T00:22:46;27.55;;;17.15;;
64667;SDS011;51077;42.716;23.344;2023-11-22T00:25:12;29.50;;;18.02;;
64667;SDS011;51077;42.716;23.344;2023-11-22T00:27:38;27.85;;;17.77;;
64667;SDS011;51077;42.716;23.344;2023-11-22T00:30:04;29.30;;;17.57;;
64667;SDS011;51077;42.716;23.344;2023-11-22T00:39:14;22.38;;;15.73;;
64667;SDS011;51077;42.716;23.344;2023-11-22T00:48:23;26.52;;;16.85;;
64667;SDS011;51077;42.716;23.344;2023-11-22T00:50:48;25.30;;;17.13;;
64667;SDS011;51077;42.716;23.344;2023-11-22T00:53:13;25.27;;;16.47;;
64667;SDS011;51077;42.716;23.344;2023-11-22T00:55:40;27.43;;;17.30;;
64667;SDS011;51077;42.716;23.344;2023-11-22T00:58:07;27.80;;;17.15;;
64667;SDS011;51077;42.716;23.344;2023-11-22T01:00:32;23.60;;;16.30;;
64667;SDS011;51077;42.716;23.344;2023-11-22T01:02:58;26.30;;;16.67;;
64667;SDS011;51077;42.716;23.344;2023-11-22T01:05:23;25.03;;;16.67;;
64667;SDS011;51077;42.716;23.344;2023-11-22T01:07:49;23.47;;;15.60;;
64667;SDS011;51077;42.716;23.344;2023-11-22T01:10:15;24.87;;;15.83;;
64667;SDS011;51077;42.716;23.344;2023-11-22T01:12:40;25.77;;;16.30;;
64667;SDS011;51077;42.716;23.344;2023-11-22T01:15:07;23.90;;;16.02;;
64667;SDS011;51077;42.716;23.344;2023-11-22T01:17:33;27.95;;;17.25;;
64667;SDS011;51077;42.716;23.344;2023-11-22T01:20:00;25.08;;;16.13;;
64667;SDS011;51077;42.716;23.344;2023-11-22T01:22:26;26.27;;;16.15;;
64667;SDS011;51077;42.716;23.344;2023-11-22T01:24:52;26.45;;;15.82;;
64667;SDS011;51077;42.716;23.344;2023-11-22T01:27:18;23.37;;;15.30;;
64667;SDS011;51077;42.716;23.344;2023-11-22T01:29:43;25.73;;;16.03;;
64667;SDS011;51077;42.716;23.344;2023-11-22T01:32:09;23.63;;;16.13;;
64667;SDS011;51077;42.716;23.344;2023-11-22T01:34:35;24.57;;;15.83;;
64667;SDS011;51077;42.716;23.344;2023-11-22T01:37:01;25.50;;;16.25;;
64667;SDS011;51077;42.716;23.344;2023-11-22T01:39:26;28.80;;;16.33;;
64667;SDS011;51077;42.716;23.344;2023-11-22T01:41:52;23.10;;;15.27;;
64667;SDS011;51077;42.716;23.344;2023-11-22T01:44:19;23.40;;;15.30;;
64667;SDS011;51077;42.716;23.344;2023-11-22T01:46:44;22.13;;;14.97;;
64667;SDS011;51077;42.716;23.344;2023-11-22T01:49:10;27.30;;;15.20;;
64667;SDS011;51077;42.716;23.344;2023-11-22T01:51:37;27.70;;;15.35;;
64667;SDS011;51077;42.716;23.344;2023-11-22T01:54:03;21.85;;;13.88;;
64667;SDS011;51077;42.716;23.344;2023-11-22T01:56:31;24.33;;;15.48;;
64667;SDS011;51077;42.716;23.344;2023-11-22T01:58:57;23.17;;;14.80;;
64667;SDS011;51077;42.716;23.344;2023-11-22T02:01:26;21.85;;;14.13;;
64667;SDS011;51077;42.716;23.344;2023-11-22T02:03:52;23.50;;;14.70;;
64667;SDS011;51077;42.716;23.344;2023-11-22T02:06:18;21.73;;;13.48;;
64667;SDS011;51077;42.716;23.344;2023-11-22T02:08:46;22.15;;;13.82;;
64667;SDS011;51077;42.716;23.344;2023-11-22T02:11:12;23.35;;;14.45;;
64667;SDS011;51077;42.716;23.344;2023-11-22T02:13:38;24.70;;;14.10;;
64667;SDS011;51077;42.716;23.344;2023-11-22T02:16:04;21.07;;;14.10;;
64667;SDS011;51077;42.716;23.344;2023-11-22T02:18:30;18.60;;;12.35;;
64667;SDS011;51077;42.716;23.344;2023-11-22T02:20:56;18.73;;;13.25;;
64667;SDS011;51077;42.716;23.344;2023-11-22T02:23:21;19.95;;;14.23;;
64667;SDS011;51077;42.716;23.344;2023-11-22T02:25:47;20.67;;;13.20;;
64667;SDS011;51077;42.716;23.344;2023-11-22T02:28:13;22.00;;;14.00;;
64667;SDS011;51077;42.716;23.344;2023-11-22T02:30:39;19.35;;;13.55;;
64667;SDS011;51077;42.716;23.344;2023-11-22T02:33:05;20.73;;;13.67;;
64667;SDS011;51077;42.716;23.344;2023-11-22T02:35:31;20.65;;;13.30;;
64667;SDS011;51077;42.716;23.344;2023-11-22T02:37:57;20.13;;;12.90;;
64667;SDS011;51077;42.716;23.344;2023-11-22T02:40:24;20.08;;;12.05;;
64667;SDS011;51077;42.716;23.344;2023-11-22T02:42:50;19.70;;;12.97;;
64667;SDS011;51077;42.716;23.344;2023-11-22T02:45:19;20.52;;;12.70;;
64667;SDS011;51077;42.716;23.344;2023-11-22T02:47:53;20.90;;;12.45;;
64667;SDS011;51077;42.716;23.344;2023-11-22T02:50:19;19.70;;;12.20;;
64667;SDS011;51077;42.716;23.344;2023-11-22T02:52:44;20.17;;;11.90;;
64667;SDS011;51077;42.716;23.344;2023-11-22T02:55:10;18.50;;;12.60;;
64667;SDS011;51077;42.716;23.344;2023-11-22T02:57:39;18.97;;;11.43;;
64667;SDS011;51077;42.716;23.344;2023-11-22T03:00:05;18.40;;;11.95;;
64667;SDS011;51077;42.716;23.344;2023-11-22T03:02:33;18.50;;;11.80;;
64667;SDS011;51077;42.716;23.344;2023-11-22T03:04:58;16.42;;;11.32;;
64667;SDS011;51077;42.716;23.344;2023-11-22T03:07:27;18.30;;;11.50;;
64667;SDS011;51077;42.716;23.344;2023-11-22T03:09:53;16.25;;;10.68;;
64667;SDS011;51077;42.716;23.344;2023-11-22T03:12:19;15.90;;;11.17;;
64667;SDS011;51077;42.716;23.344;2023-11-22T03:14:48;19.02;;;11.00;;
64667;SDS011;51077;42.716;23.344;2023-11-22T03:17:14;18.93;;;12.03;;
64667;SDS011;51077;42.716;23.344;2023-11-22T03:19:40;17.48;;;11.15;;
64667;SDS011;51077;42.716;23.344;2023-11-22T03:22:06;19.17;;;12.10;;
64667;SDS011;51077;42.716;23.344;2023-11-22T03:24:32;16.23;;;10.93;;
64667;SDS011;51077;42.716;23.344;2023-11-22T03:27:00;18.98;;;11.48;;
64667;SDS011;51077;42.716;23.344;2023-11-22T03:29:26;16.95;;;10.90;;
64667;SDS011;51077;42.716;23.344;2023-11-22T03:31:52;17.55;;;11.20;;
64667;SDS011;51077;42.716;23.344;2023-11-22T03:34:18;16.93;;;10.63;;
64667;SDS011;51077;42.716;23.344;2023-11-22T03:36:44;15.38;;;10.15;;
64667;SDS011;51077;42.716;23.344;2023-11-22T03:39:10;16.67;;;10.73;;
64667;SDS011;51077;42.716;23.344;2023-11-22T03:41:36;14.40;;;9.90;;
64667;SDS011;51077;42.716;23.344;2023-11-22T03:44:05;16.90;;;10.70;;
64667;SDS011;51077;42.716;23.344;2023-11-22T03:46:33;16.75;;;10.00;;
64667;SDS011;51077;42.716;23.344;2023-11-22T03:49:05;17.15;;;10.48;;
64667;SDS011;51077;42.716;23.344;2023-11-22T03:51:34;14.32;;;9.65;;
64667;SDS011;51077;42.716;23.344;2023-11-22T03:54:01;17.35;;;9.77;;
64667;SDS011;51077;42.716;23.344;2023-11-22T03:56:28;14.20;;;9.68;;
64667;SDS011;51077;42.716;23.344;2023-11-22T03:58:54;16.15;;;9.73;;
64667;SDS011;51077;42.716;23.344;2023-11-22T04:01:19;16.13;;;9.85;;
64667;SDS011;51077;42.716;23.344;2023-11-22T04:03:46;14.83;;;10.40;;
64667;SDS011;51077;42.716;23.344;2023-11-22T04:06:13;15.38;;;9.90;;
64667;SDS011;51077;42.716;23.344;2023-11-22T04:08:46;16.83;;;10.43;;
64667;SDS011;51077;42.716;23.344;2023-11-22T04:11:12;16.73;;;9.45;;
64667;SDS011;51077;42.716;23.344;2023-11-22T04:13:38;14.85;;;10.18;;
64667;SDS011;51077;42.716;23.344;2023-11-22T04:16:04;14.30;;;10.18;;
64667;SDS011;51077;42.716;23.344;2023-11-22T04:18:33;15.70;;;9.95;;
64667;SDS011;51077;42.716;23.344;2023-11-22T04:21:00;16.90;;;10.82;;
64667;SDS011;51077;42.716;23.344;2023-11-22T04:23:28;17.77;;;10.70;;
64667;SDS011;51077;42.716;23.344;2023-11-22T04:25:53;17.37;;;10.87;;
64667;SDS011;51077;42.716;23.344;2023-11-22T04:28:19;16.00;;;10.57;;
64667;SDS011;51077;42.716;23.344;2023-11-22T04:30:44;19.40;;;10.73;;
64667;SDS011;51077;42.716;23.344;2023-11-22T04:33:10;16.53;;;10.07;;
64667;SDS011;51077;42.716;23.344;2023-11-22T04:35:35;15.93;;;9.07;;
64667;SDS011;51077;42.716;23.344;2023-11-22T04:38:03;15.32;;;10.07;;
64667;SDS011;51077;42.716;23.344;2023-11-22T04:40:29;17.63;;;10.50;;
64667;SDS011;51077;42.716;23.344;2023-11-22T04:42:55;16.10;;;10.48;;
64667;SDS011;51077;42.716;23.344;2023-11-22T04:45:21;15.53;;;10.63;;
64667;SDS011;51077;42.716;23.344;2023-11-22T04:47:46;18.13;;;9.90;;
64667;SDS011;51077;42.716;23.344;2023-11-22T04:50:12;14.90;;;9.27;;
64667;SDS011;51077;42.716;23.344;2023-11-22T04:52:38;18.60;;;9.93;;
64667;SDS011;51077;42.716;23.344;2023-11-22T04:55:04;16.00;;;9.90;;
64667;SDS011;51077;42.716;23.344;2023-11-22T04:57:30;16.47;;;10.67;;
64667;SDS011;51077;42.716;23.344;2023-11-22T04:59:55;17.50;;;10.93;;
64667;SDS011;51077;42.716;23.344;2023-11-22T05:02:21;16.83;;;10.90;;
64667;SDS011;51077;42.716;23.344;2023-11-22T05:04:46;20.37;;;10.87;;
64667;SDS011;51077;42.716;23.344;2023-11-22T05:07:14;18.48;;;11.75;;
64667;SDS011;51077;42.716;23.344;2023-11-22T05:09:41;17.88;;;12.00;;
64667;SDS011;51077;42.716;23.344;2023-11-22T05:12:08;18.40;;;11.65;;
64667;SDS011;51077;42.716;23.344;2023-11-22T05:14:34;18.30;;;11.93;;
64667;SDS011;51077;42.716;23.344;2023-11-22T05:16:59;17.77;;;11.37;;
64667;SDS011;51077;42.716;23.344;2023-11-22T05:19:25;18.10;;;11.20;;
64667;SDS011;51077;42.716;23.344;2023-11-22T05:21:50;19.73;;;10.70;;
64667;SDS011;51077;42.716;23.344;2023-11-22T05:24:16;20.03;;;12.07;;
64667;SDS011;51077;42.716;23.344;2023-11-22T05:26:41;18.90;;;11.40;;
64667;SDS011;51077;42.716;23.344;2023-11-22T05:29:07;16.83;;;10.93;;
64667;SDS011;51077;42.716;23.344;2023-11-22T05:31:33;14.97;;;10.77;;
64667;SDS011;51077;42.716;23.344;2023-11-22T05:33:58;19.57;;;11.83;;
64667;SDS011;51077;42.716;23.344;2023-11-22T05:36:24;18.17;;;11.27;;
64667;SDS011;51077;42.716;23.344;2023-11-22T05:38:49;20.83;;;11.77;;
64667;SDS011;51077;42.716;23.344;2023-11-22T05:41:14;15.37;;;10.53;;
64667;SDS011;51077;42.716;23.344;2023-11-22T05:43:40;18.17;;;10.88;;
64667;SDS011;51077;42.716;23.344;2023-11-22T05:46:07;21.70;;;12.82;;
64667;SDS011;51077;42.716;23.344;2023-11-22T05:48:33;16.07;;;10.40;;
64667;SDS011;51077;42.716;23.344;2023-11-22T05:50:59;16.73;;;10.90;;
64667;SDS011;51077;42.716;23.344;2023-11-22T05:53:24;15.40;;;9.90;;
64667;SDS011;51077;42.716;23.344;2023-11-22T05:55:50;21.13;;;12.00;;
64667;SDS011;51077;42.716;23.344;2023-11-22T05:58:16;20.00;;;12.00;;
64667;SDS011;51077;42.716;23.344;2023-11-22T06:00:45;17.27;;;10.00;;
64667;SDS011;51077;42.716;23.344;2023-11-22T06:03:11;19.77;;;11.43;;
64667;SDS011;51077;42.716;23.344;2023-11-22T06:05:38;18.42;;;11.10;;
64667;SDS011;51077;42.716;23.344;2023-11-22T06:08:04;16.60;;;10.60;;
64667;SDS011;51077;42.716;23.344;2023-11-22T06:10:29;18.60;;;10.87;;
64667;SDS011;51077;42.716;23.344;2023-11-22T06:12:55;16.77;;;11.30;;
64667;SDS011;51077;42.716;23.344;2023-11-22T06:15:20;16.60;;;10.97;;
64667;SDS011;51077;42.716;23.344;2023-11-22T06:17:47;18.00;;;10.65;;
64667;SDS011;51077;42.716;23.344;2023-11-22T06:20:13;20.90;;;12.02;;
64667;SDS011;51077;42.716;23.344;2023-11-22T06:22:39;17.90;;;11.50;;
64667;SDS011;51077;42.716;23.344;2023-11-22T06:25:10;18.05;;;11.00;;
64667;SDS011;51077;42.716;23.344;2023-11-22T06:27:37;18.50;;;11.60;;
64667;SDS011;51077;42.716;23.344;2023-11-22T06:30:03;16.90;;;10.73;;
64667;SDS011;51077;42.716;23.344;2023-11-22T06:32:29;18.42;;;10.90;;
64667;SDS011;51077;42.716;23.344;2023-11-22T06:34:54;17.10;;;10.73;;
64667;SDS011;51077;42.716;23.344;2023-11-22T06:37:20;19.83;;;11.07;;
64667;SDS011;51077;42.716;23.344;2023-11-22T06:39:46;15.20;;;10.20;;
64667;SDS011;51077;42.716;23.344;2023-11-22T06:42:11;14.93;;;9.90;;
64667;SDS011;51077;42.716;23.344;2023-11-22T06:44:38;16.77;;;10.73;;
64667;SDS011;51077;42.716;23.344;2023-11-22T06:47:05;18.77;;;12.00;;
64667;SDS011;51077;42.716;23.344;2023-11-22T06:49:32;17.52;;;11.38;;
64667;SDS011;51077;42.716;23.344;2023-11-22T06:51:58;19.70;;;12.40;;
64667;SDS011;51077;42.716;23.344;2023-11-22T06:54:24;18.50;;;11.53;;
64667;SDS011;51077;42.716;23.344;2023-11-22T06:56:49;18.05;;;11.85;;
64667;SDS011;51077;42.716;23.344;2023-11-22T06:59:16;18.70;;;11.23;;
64667;SDS011;51077;42.716;23.344;2023-11-22T07:01:42;17.13;;;11.17;;
64667;SDS011;51077;42.716;23.344;2023-11-22T07:04:07;14.97;;;11.30;;
64667;SDS011;51077;42.716;23.344;2023-11-22T07:06:33;16.93;;;11.40;;
64667;SDS011;51077;42.716;23.344;2023-11-22T07:08:58;16.03;;;10.63;;
64667;SDS011;51077;42.716;23.344;2023-11-22T07:11:24;19.27;;;11.80;;
64667;SDS011;51077;42.716;23.344;2023-11-22T07:13:51;18.35;;;10.63;;
64667;SDS011;51077;42.716;23.344;2023-11-22T07:16:17;17.17;;;11.93;;
64667;SDS011;51077;42.716;23.344;2023-11-22T07:18:43;17.40;;;11.27;;
64667;SDS011;51077;42.716;23.344;2023-11-22T07:21:10;18.73;;;11.35;;
64667;SDS011;51077;42.716;23.344;2023-11-22T07:23:37;16.15;;;10.40;;
64667;SDS011;51077;42.716;23.344;2023-11-22T07:26:03;20.15;;;11.50;;
64667;SDS011;51077;42.716;23.344;2023-11-22T07:28:29;18.73;;;11.13;;
64667;SDS011;51077;42.716;23.344;2023-11-22T07:30:55;17.83;;;11.13;;
64667;SDS011;51077;42.716;23.344;2023-11-22T07:33:21;17.38;;;9.88;;
64667;SDS011;51077;42.716;23.344;2023-11-22T07:35:51;17.80;;;10.65;;
64667;SDS011;51077;42.716;23.344;2023-11-22T07:38:17;17.48;;;11.77;;
64667;SDS011;51077;42.716;23.344;2023-11-22T07:40:42;16.17;;;10.40;;
64667;SDS011;51077;42.716;23.344;2023-11-22T07:43:07;16.73;;;10.43;;
64667;SDS011;51077;42.716;23.344;2023-11-22T07:45:34;16.20;;;11.00;;
64667;SDS011;51077;42.716;23.344;2023-11-22T07:47:59;16.73;;;10.43;;
64667;SDS011;51077;42.716;23.344;2023-11-22T07:50:26;17.20;;;11.05;;
64667;SDS011;51077;42.716;23.344;2023-11-22T07:52:52;16.52;;;11.15;;
64667;SDS011;51077;42.716;23.344;2023-11-22T07:55:17;16.77;;;11.50;;
64667;SDS011;51077;42.716;23.344;2023-11-22T07:57:47;16.87;;;10.87;;
64667;SDS011;51077;42.716;23.344;2023-11-22T08:00:16;15.85;;;11.02;;
64667;SDS011;51077;42.716;23.344;2023-11-22T08:02:44;15.75;;;11.25;;
64667;SDS011;51077;42.716;23.344;2023-11-22T08:05:10;16.50;;;10.95;;
64667;SDS011;51077;42.716;23.344;2023-11-22T08:07:37;15.95;;;10.68;;
64667;SDS011;51077;42.716;23.344;2023-11-22T08:10:06;17.58;;;11.60;;
64667;SDS011;51077;42.716;23.344;2023-11-22T08:12:42;17.58;;;11.35;;
64667;SDS011;51077;42.716;23.344;2023-11-22T08:15:09;18.27;;;12.05;;
64667;SDS011;51077;42.716;23.344;2023-11-22T08:17:38;18.35;;;12.02;;
64667;SDS011;51077;42.716;23.344;2023-11-22T08:20:05;16.60;;;11.48;;
64667;SDS011;51077;42.716;23.344;2023-11-22T08:22:34;17.95;;;11.35;;
64667;SDS011;51077;42.716;23.344;2023-11-22T08:25:03;16.98;;;11.40;;
64667;SDS011;51077;42.716;23.344;2023-11-22T08:27:29;16.73;;;11.57;;
64667;SDS011;51077;42.716;23.344;2023-11-22T08:29:55;18.27;;;11.93;;
64667;SDS011;51077;42.716;23.344;2023-11-22T08:32:21;19.17;;;12.63;;
64667;SDS011;51077;42.716;23.344;2023-11-22T08:34:51;18.85;;;11.88;;
64667;SDS011;51077;42.716;23.344;2023-11-22T08:37:17;19.27;;;12.38;;
64667;SDS011;51077;42.716;23.344;2023-11-22T08:39:43;21.77;;;13.68;;
64667;SDS011;51077;42.716;23.344;2023-11-22T08:42:09;18.67;;;12.27;;
64667;SDS011;51077;42.716;23.344;2023-11-22T08:44:38;21.10;;;12.27;;
64667;SDS011;51077;42.716;23.344;2023-11-22T08:47:03;22.08;;;13.07;;
64667;SDS011;51077;42.716;23.344;2023-11-22T08:49:29;24.57;;;13.43;;
64667;SDS011;51077;42.716;23.344;2023-11-22T08:51:56;20.77;;;13.05;;
64667;SDS011;51077;42.716;23.344;2023-11-22T08:54:22;21.52;;;13.10;;
64667;SDS011;51077;42.716;23.344;2023-11-22T08:56:47;21.17;;;12.97;;
64667;SDS011;51077;42.716;23.344;2023-11-22T08:59:13;21.07;;;13.20;;
64667;SDS011;51077;42.716;23.344;2023-11-22T09:01:39;20.10;;;12.55;;
64667;SDS011;51077;42.716;23.344;2023-11-22T09:04:05;21.75;;;13.13;;
64667;SDS011;51077;42.716;23.344;2023-11-22T09:06:33;22.23;;;12.63;;
64667;SDS011;51077;42.716;23.344;2023-11-22T09:09:00;19.58;;;13.20;;
64667;SDS011;51077;42.716;23.344;2023-11-22T09:11:26;23.13;;;12.50;;
64667;SDS011;51077;42.716;23.344;2023-11-22T09:13:51;20.70;;;12.47;;
64667;SDS011;51077;42.716;23.344;2023-11-22T09:16:18;19.02;;;12.63;;
64667;SDS011;51077;42.716;23.344;2023-11-22T09:18:47;19.90;;;12.05;;
64667;SDS011;51077;42.716;23.344;2023-11-22T09:21:12;22.80;;;13.47;;
64667;SDS011;51077;42.716;23.344;2023-11-22T09:23:38;22.27;;;13.50;;
64667;SDS011;51077;42.716;23.344;2023-11-22T09:26:03;20.40;;;12.47;;
64667;SDS011;51077;42.716;23.344;2023-11-22T09:28:30;20.98;;;12.60;;
64667;SDS011;51077;42.716;23.344;2023-11-22T09:30:56;21.27;;;12.57;;
64667;SDS011;51077;42.716;23.344;2023-11-22T09:33:30;20.25;;;12.55;;
64667;SDS011;51077;42.716;23.344;2023-11-22T09:35:57;20.83;;;12.90;;
64667;SDS011;51077;42.716;23.344;2023-11-22T09:38:25;22.20;;;12.70;;
64667;SDS011;51077;42.716;23.344;2023-11-22T09:40:51;24.37;;;14.70;;
64667;SDS011;51077;42.716;23.344;2023-11-22T09:43:17;23.60;;;14.17;;
64667;SDS011;51077;42.716;23.344;2023-11-22T09:45:45;20.77;;;13.35;;
64667;SDS011;51077;42.716;23.344;2023-11-22T09:56:13;19.55;;;12.80;;
64667;SDS011;51077;42.716;23.344;2023-11-22T09:58:40;20.38;;;14.02;;
64667;SDS011;51077;42.716;23.344;2023-11-22T10:01:13;19.83;;;12.68;;
64667;SDS011;51077;42.716;23.344;2023-11-22T10:03:39;21.25;;;13.98;;
64667;SDS011;51077;42.716;23.344;2023-11-22T10:06:05;20.50;;;12.85;;
64667;SDS011;51077;42.716;23.344;2023-11-22T10:08:31;19.77;;;12.82;;
64667;SDS011;51077;42.716;23.344;2023-11-22T10:10:58;18.77;;;13.18;;
64667;SDS011;51077;42.716;23.344;2023-11-22T10:13:24;24.30;;;12.10;;
64667;SDS011;51077;42.716;23.344;2023-11-22T10:15:50;18.60;;;12.77;;
64667;SDS011;51077;42.716;23.344;2023-11-22T10:18:17;21.38;;;12.32;;
64667;SDS011;51077;42.716;23.344;2023-11-22T10:20:43;20.23;;;12.40;;
64667;SDS011;51077;42.716;23.344;2023-11-22T10:23:14;23.95;;;13.63;;
64667;SDS011;51077;42.716;23.344;2023-11-22T10:25:44;20.20;;;12.63;;
64667;SDS011;51077;42.716;23.344;2023-11-22T10:28:12;19.23;;;12.27;;
64667;SDS011;51077;42.716;23.344;2023-11-22T10:30:38;21.37;;;12.77;;
64667;SDS011;51077;42.716;23.344;2023-11-22T10:33:05;18.60;;;12.45;;
64667;SDS011;51077;42.716;23.344;2023-11-22T10:35:31;17.90;;;12.40;;
64667;SDS011;51077;42.716;23.344;2023-11-22T10:37:58;18.73;;;11.83;;
64667;SDS011;51077;42.716;23.344;2023-11-22T10:40:28;19.50;;;12.73;;
64667;SDS011;51077;42.716;23.344;2023-11-22T10:42:53;18.33;;;12.02;;
64667;SDS011;51077;42.716;23.344;2023-11-22T10:45:21;20.60;;;12.00;;
64667;SDS011;51077;42.716;23.344;2023-11-22T10:47:46;17.17;;;11.93;;
64667;SDS011;51077;42.716;23.344;2023-11-22T10:50:14;15.70;;;11.10;;
64667;SDS011;51077;42.716;23.344;2023-11-22T10:52:41;18.85;;;11.50;;
64667;SDS011;51077;42.716;23.344;2023-11-22T10:55:11;19.90;;;12.07;;
64667;SDS011;51077;42.716;23.344;2023-11-22T10:57:43;18.42;;;11.63;;
64667;SDS011;51077;42.716;23.344;2023-11-22T11:00:13;19.90;;;11.45;;
64667;SDS011;51077;42.716;23.344;2023-11-22T11:02:41;14.68;;;11.52;;
64667;SDS011;51077;42.716;23.344;2023-11-22T11:05:32;17.27;;;10.73;;
64667;SDS011;51077;42.716;23.344;2023-11-22T11:08:01;16.23;;;11.00;;
64667;SDS011;51077;42.716;23.344;2023-11-22T11:10:45;16.42;;;11.07;;
64667;SDS011;51077;42.716;23.344;2023-11-22T11:13:11;17.17;;;10.77;;
64667;SDS011;51077;42.716;23.344;2023-11-22T11:15:41;18.33;;;11.85;;
64667;SDS011;51077;42.716;23.344;2023-11-22T11:18:13;17.10;;;11.15;;
64667;SDS011;51077;42.716;23.344;2023-11-22T11:20:49;15.00;;;10.73;;
64667;SDS011;51077;42.716;23.344;2023-11-22T11:23:22;17.02;;;10.63;;
64667;SDS011;51077;42.716;23.344;2023-11-22T11:25:53;15.82;;;10.45;;
64667;SDS011;51077;42.716;23.344;2023-11-22T11:28:20;15.93;;;10.35;;
64667;SDS011;51077;42.716;23.344;2023-11-22T11:30:49;13.35;;;10.27;;
64667;SDS011;51077;42.716;23.344;2023-11-22T11:33:52;15.75;;;10.68;;
64667;SDS011;51077;42.716;23.344;2023-11-22T11:36:24;16.23;;;11.52;;
64667;SDS011;51077;42.716;23.344;2023-11-22T11:38:58;18.15;;;11.73;;
64667;SDS011;51077;42.716;23.344;2023-11-22T11:41:31;16.65;;;10.98;;
64667;SDS011;51077;42.716;23.344;2023-11-22T11:44:02;17.52;;;11.10;;
64667;SDS011;51077;42.716;23.344;2023-11-22T11:46:29;18.02;;;10.63;;
64667;SDS011;51077;42.716;23.344;2023-11-22T11:48:55;20.05;;;11.75;;
64667;SDS011;51077;42.716;23.344;2023-11-22T11:51:22;19.98;;;12.13;;
64667;SDS011;51077;42.716;23.344;2023-11-22T11:53:49;18.10;;;12.13;;
64667;SDS011;51077;42.716;23.344;2023-11-22T11:56:15;19.20;;;12.35;;
64667;SDS011;51077;42.716;23.344;2023-11-22T12:01:31;23.42;;;12.52;;
64667;SDS011;51077;42.716;23.344;2023-11-22T12:04:02;18.60;;;12.40;;
64667;SDS011;51077;42.716;23.344;2023-11-22T12:06:29;17.48;;;12.30;;
64667;SDS011;51077;42.716;23.344;2023-11-22T12:08:56;16.83;;;11.60;;
64667;SDS011;51077;42.716;23.344;2023-11-22T12:11:21;18.00;;;11.63;;
64667;SDS011;51077;42.716;23.344;2023-11-22T12:13:47;17.50;;;12.30;;
64667;SDS011;51077;42.716;23.344;2023-11-22T12:16:14;18.83;;;12.40;;
64667;SDS011;51077;42.716;23.344;2023-11-22T12:18:45;19.83;;;12.63;;
64667;SDS011;51077;42.716;23.344;2023-11-22T12:21:14;18.65;;;11.38;;
64667;SDS011;51077;42.716;23.344;2023-11-22T12:23:42;17.88;;;11.15;;
64667;SDS011;51077;42.716;23.344;2023-11-22T12:26:15;16.75;;;11.32;;
64667;SDS011;51077;42.716;23.344;2023-11-22T12:28:44;16.92;;;10.80;;
64667;SDS011;51077;42.716;23.344;2023-11-22T12:31:12;18.23;;;11.18;;
64667;SDS011;51077;42.716;23.344;2023-11-22T12:33:39;17.67;;;10.80;;
64667;SDS011;51077;42.716;23.344;2023-11-22T12:36:07;17.33;;;11.13;;
64667;SDS011;51077;42.716;23.344;2023-11-22T12:38:40;16.27;;;11.38;;
64667;SDS011;51077;42.716;23.344;2023-11-22T12:41:06;15.02;;;10.90;;
64667;SDS011;51077;42.716;23.344;2023-11-22T12:43:32;18.30;;;11.68;;
64667;SDS011;51077;42.716;23.344;2023-11-22T12:45:58;16.85;;;11.52;;
64667;SDS011;51077;42.716;23.344;2023-11-22T12:48:38;17.58;;;11.45;;
64667;SDS011;51077;42.716;23.344;2023-11-22T12:51:14;17.08;;;11.52;;
64667;SDS011;51077;42.716;23.344;2023-11-22T12:53:41;15.65;;;10.65;;
64667;SDS011;51077;42.716;23.344;2023-11-22T12:56:06;17.50;;;11.47;;
64667;SDS011;51077;42.716;23.344;2023-11-22T12:58:32;19.10;;;11.40;;
64667;SDS011;51077;42.716;23.344;2023-11-22T13:00:58;16.17;;;10.63;;
64667;SDS011;51077;42.716;23.344;2023-11-22T13:03:25;17.95;;;11.05;;
64667;SDS011;51077;42.716;23.344;2023-11-22T13:05:51;15.98;;;11.50;;
64667;SDS011;51077;42.716;23.344;2023-11-22T13:08:17;14.97;;;10.77;;
64667;SDS011;51077;42.716;23.344;2023-11-22T13:10:43;17.48;;;10.95;;
64667;SDS011;51077;42.716;23.344;2023-11-22T13:13:12;18.98;;;11.05;;
64667;SDS011;51077;42.716;23.344;2023-11-22T13:15:38;17.02;;;10.50;;
64667;SDS011;51077;42.716;23.344;2023-11-22T13:18:05;15.25;;;10.63;;
64667;SDS011;51077;42.716;23.344;2023-11-22T13:20:31;15.52;;;10.85;;
64667;SDS011;51077;42.716;23.344;2023-11-22T13:22:57;16.40;;;10.63;;
64667;SDS011;51077;42.716;23.344;2023-11-22T13:25:24;17.75;;;11.85;;
64667;SDS011;51077;42.716;23.344;2023-11-22T13:27:50;14.73;;;10.33;;
64667;SDS011;51077;42.716;23.344;2023-11-22T13:30:17;16.40;;;10.38;;
64667;SDS011;51077;42.716;23.344;2023-11-22T13:32:47;14.52;;;9.70;;
64667;SDS011;51077;42.716;23.344;2023-11-22T13:35:14;14.30;;;9.77;;
64667;SDS011;51077;42.716;23.344;2023-11-22T13:37:46;16.73;;;10.23;;
64667;SDS011;51077;42.716;23.344;2023-11-22T13:40:13;14.07;;;9.88;;
64667;SDS011;51077;42.716;23.344;2023-11-22T13:42:43;16.23;;;10.63;;
64667;SDS011;51077;42.716;23.344;2023-11-22T13:45:14;14.45;;;10.27;;
64667;SDS011;51077;42.716;23.344;2023-11-22T13:47:45;15.13;;;10.60;;
64667;SDS011;51077;42.716;23.344;2023-11-22T13:50:15;17.75;;;11.98;;
64667;SDS011;51077;42.716;23.344;2023-11-22T13:52:47;17.30;;;11.88;;
64667;SDS011;51077;42.716;23.344;2023-11-22T13:55:13;20.65;;;13.32;;
64667;SDS011;51077;42.716;23.344;2023-11-22T13:57:40;21.00;;;13.68;;
64667;SDS011;51077;42.716;23.344;2023-11-22T14:00:06;23.47;;;14.77;;
64667;SDS011;51077;42.716;23.344;2023-11-22T14:02:38;24.67;;;14.77;;
64667;SDS011;51077;42.716;23.344;2023-11-22T14:05:06;24.90;;;14.85;;
64667;SDS011;51077;42.716;23.344;2023-11-22T14:07:37;26.85;;;15.70;;
64667;SDS011;51077;42.716;23.344;2023-11-22T14:10:04;24.98;;;15.05;;
64667;SDS011;51077;42.716;23.344;2023-11-22T14:12:30;23.02;;;14.52;;
64667;SDS011;51077;42.716;23.344;2023-11-22T14:14:57;24.38;;;14.45;;
64667;SDS011;51077;42.716;23.344;2023-11-22T14:17:25;27.33;;;15.60;;
64667;SDS011;51077;42.716;23.344;2023-11-22T14:19:54;27.08;;;15.82;;
64667;SDS011;51077;42.716;23.344;2023-11-22T14:22:23;26.13;;;15.65;;
64667;SDS011;51077;42.716;23.344;2023-11-22T14:24:49;26.83;;;15.82;;
64667;SDS011;51077;42.716;23.344;2023-11-22T14:27:18;24.85;;;15.32;;
64667;SDS011;51077;42.716;23.344;2023-11-22T14:29:47;26.23;;;15.50;;
64667;SDS011;51077;42.716;23.344;2023-11-22T14:32:19;29.35;;;16.65;;